Time;durP1;ratioP1;P1;durP2;ratioP2;P2;SDS_P1;SDS_P2;PMS_P1;PMS_P2;Temp;Humidity;BMP_temperature;BMP_pressure;BME280_temperature;BME280_humidity;BME280_pressure;Samples;Min_cycle;Max_cycle;Signal;HPM_P1;HPM_P2
2022/08/21 00:01:56;;;;;;;23.27;14.23;;;;;;;20.45;76.80;94661.44;5019341;28;20160;-85
2022/08/21 00:04:22;;;;;;;22.75;14.48;;;;;;;20.46;78.72;94686.47;5020878;28;20073;-85
2022/08/21 00:06:47;;;;;;;21.08;14.20;;;;;;;19.93;77.45;94607.81;5019115;28;20056;-85
2022/08/21 00:09:13;;;;;;;22.30;13.57;;;;;;;20.34;78.10;94663.09;5021303;28;20068;-86
2022/08/21 00:11:39;;;;;;;22.23;14.48;;;;;;;20.34;77.92;94661.19;5020152;28;20044;-85
2022/08/21 00:14:07;;;;;;;22.75;13.10;;;;;;;20.14;77.80;94629.88;5018979;28;20384;-85
2022/08/21 00:16:33;;;;;;;23.92;15.18;;;;;;;19.99;77.50;94614.50;5019029;28;20044;-86
2022/08/21 00:18:59;;;;;;;24.38;15.20;;;;;;;19.87;79.60;94652.25;5020249;28;20090;-85
2022/08/21 00:21:25;;;;;;;30.42;16.30;;;;;;;20.24;79.04;94698.59;5020577;28;20566;-86
2022/08/21 00:23:51;;;;;;;27.85;15.57;;;;;;;19.53;79.54;94572.97;5020854;28;20045;-86
2022/08/21 00:26:16;;;;;;;22.67;14.55;;;;;;;20.01;79.11;94639.16;5018238;28;20412;-85
2022/08/21 00:28:42;;;;;;;23.90;15.52;;;;;;;20.41;79.75;94704.47;5018282;28;20423;-85
2022/08/21 00:31:07;;;;;;;33.00;15.98;;;;;;;20.52;79.81;94696.63;5018962;28;20037;-86
2022/08/21 00:33:33;;;;;;;28.10;15.77;;;;;;;20.19;80.02;94626.94;5018544;28;20077;-86
2022/08/21 00:36:00;;;;;;;27.38;15.48;;;;;;;20.22;78.97;94615.47;5019631;28;20077;-86
2022/08/21 00:38:26;;;;;;;22.60;14.20;;;;;;;20.74;78.71;94703.34;5018476;28;20422;-86
2022/08/21 00:40:55;;;;;;;23.58;14.15;;;;;;;20.46;79.02;94667.59;5018281;28;20042;-86
2022/08/21 00:43:24;;;;;;;23.20;14.35;;;;;;;20.69;80.13;94688.19;5017588;28;20132;-86
2022/08/21 00:45:50;;;;;;;31.55;15.68;;;;;;;20.42;79.08;94651.38;5020600;28;20042;-86
2022/08/21 00:48:15;;;;;;;25.33;15.10;;;;;;;20.61;78.60;94667.59;5017836;28;20132;-86
2022/08/21 00:51:15;;;;;;;24.25;15.20;;;;;;;20.86;78.76;94710.53;5019881;28;20037;-86
2022/08/21 00:53:43;;;;;;;24.58;14.68;;;;;;;20.75;78.75;94705.66;5018614;28;20049;-86
2022/08/21 00:56:10;;;;;;;27.17;15.48;;;;;;;20.88;79.00;94713.66;5019145;28;20112;-86
2022/08/21 00:58:38;;;;;;;29.27;14.32;;;;;;;19.34;77.60;94481.38;5017788;28;20530;-86
2022/08/21 01:01:06;;;;;;;17.98;11.82;;;;;;;19.25;76.66;94476.94;5018232;28;20128;-85
2022/08/21 01:03:32;;;;;;;27.38;13.95;;;;;;;19.06;78.58;94427.69;5019751;28;20048;-85
2022/08/21 01:05:58;;;;;;;25.75;13.32;;;;;;;20.85;77.89;94698.19;5017406;28;20547;-86
2022/08/21 01:08:24;;;;;;;24.77;13.30;;;;;;;20.19;77.78;94607.31;5017255;28;20095;-86
2022/08/21 01:10:52;;;;;;;26.15;14.57;;;;;;;20.30;78.08;94606.44;5019659;28;20048;-86
2022/08/21 01:13:19;;;;;;;25.35;13.93;;;;;;;20.92;78.68;94696.44;5018509;28;20301;-86
2022/08/21 01:15:48;;;;;;;26.23;14.35;;;;;;;20.30;78.84;94601.03;5018546;28;20385;-86
2022/08/21 01:18:14;;;;;;;23.15;14.15;;;;;;;20.23;79.01;94600.88;5018654;28;20072;-86
2022/08/21 01:20:46;;;;;;;26.80;14.60;;;;;;;20.93;79.30;94687.22;5018425;28;20085;-86
2022/08/21 01:23:11;;;;;;;31.30;16.25;;;;;;;20.61;78.42;94646.06;5018309;28;20033;-86
2022/08/21 01:25:37;;;;;;;23.80;15.60;;;;;;;20.84;78.53;94669.66;5018814;28;20555;-86
2022/08/21 01:28:14;;;;;;;30.35;15.80;;;;;;;20.20;78.10;94576.56;5018310;28;20044;-86
2022/08/21 01:30:43;;;;;;;29.92;16.50;;;;;;;20.66;78.36;94658.50;5018085;28;20044;-86
2022/08/21 01:33:09;;;;;;;29.20;17.13;;;;;;;20.94;78.08;94686.09;5018432;28;20080;-86
2022/08/21 01:35:34;;;;;;;25.73;15.43;;;;;;;20.55;79.16;94636.69;5018291;28;20041;-86
2022/08/21 01:38:00;;;;;;;33.90;17.48;;;;;;;20.85;79.52;94687.41;5019121;28;20061;-86
2022/08/21 01:40:26;;;;;;;32.17;17.40;;;;;;;19.53;79.16;94484.97;5020087;28;20041;-87
2022/08/21 01:42:53;;;;;;;30.55;18.23;;;;;;;20.29;78.68;94625.66;5024981;28;20048;-86
2022/08/21 01:45:19;;;;;;;40.92;19.00;;;;;;;20.41;79.20;94639.03;5021708;28;20035;-85
2022/08/21 01:47:45;;;;;;;38.10;19.92;;;;;;;20.85;79.33;94693.56;5023386;28;20033;-85
2022/08/21 01:50:14;;;;;;;35.55;21.17;;;;;;;20.34;80.97;94623.50;5023055;28;20091;-85
2022/08/21 01:52:40;;;;;;;34.45;19.42;;;;;;;20.67;80.84;94668.91;5023696;28;20123;-85
2022/08/21 01:55:07;;;;;;;41.28;20.63;;;;;;;20.88;80.53;94689.41;5022828;28;20504;-86
2022/08/21 01:57:33;;;;;;;46.45;23.45;;;;;;;20.76;80.32;94682.19;5021432;28;20037;-85
2022/08/21 01:59:59;;;;;;;56.70;28.55;;;;;;;20.54;80.26;94653.97;5021329;28;20526;-85
2022/08/21 02:02:25;;;;;;;55.58;30.58;;;;;;;20.63;80.40;94667.25;5020284;28;20131;-86
2022/08/21 02:04:50;;;;;;;51.97;29.27;;;;;;;20.66;80.77;94653.88;5020476;28;20039;-86
2022/08/21 02:07:16;;;;;;;51.13;30.45;;;;;;;20.97;79.92;94693.50;5020449;28;20076;-86
2022/08/21 02:09:42;;;;;;;54.10;30.60;;;;;;;20.48;79.66;94639.22;5020816;28;20382;-86
2022/08/21 02:12:10;;;;;;;52.35;28.48;;;;;;;20.87;79.49;94687.84;5021268;28;20044;-86
2022/08/21 02:14:35;;;;;;;53.60;29.55;;;;;;;20.62;80.70;94639.53;5020368;28;20519;-86
2022/08/21 02:17:01;;;;;;;52.20;28.90;;;;;;;20.33;80.90;94610.34;5019911;28;20044;-86
2022/08/21 02:19:27;;;;;;;53.83;30.67;;;;;;;20.34;80.26;94595.78;5020748;28;20531;-85
2022/08/21 02:21:52;;;;;;;51.38;29.92;;;;;;;20.71;80.07;94669.00;5020193;28;20037;-86
2022/08/21 02:24:18;;;;;;;47.58;27.92;;;;;;;20.36;79.70;94596.22;5020302;28;20504;-86
2022/08/21 02:26:43;;;;;;;50.10;30.35;;;;;;;20.73;80.08;94656.75;5021805;28;20036;-86
2022/08/21 02:29:09;;;;;;;52.67;29.60;;;;;;;20.83;78.96;94685.06;5020660;28;20038;-86
2022/08/21 02:31:35;;;;;;;53.00;29.35;;;;;;;20.42;78.75;94614.47;5020522;28;20048;-87
2022/08/21 02:34:00;;;;;;;48.72;29.15;;;;;;;20.79;78.93;94674.19;5020373;28;20192;-86
2022/08/21 02:36:25;;;;;;;46.85;28.60;;;;;;;20.71;78.85;94666.31;5020286;28;20048;-87
2022/08/21 02:38:51;;;;;;;52.85;28.90;;;;;;;20.47;79.20;94628.78;5020452;28;20044;-86
2022/08/21 02:41:20;;;;;;;53.10;30.80;;;;;;;21.01;79.08;94710.50;5020388;28;20037;-86
2022/08/21 02:43:46;;;;;;;52.35;28.90;;;;;;;19.30;79.50;94443.63;5020483;28;20045;-86
2022/08/21 02:46:15;;;;;;;52.22;30.60;;;;;;;20.94;79.80;94713.03;5020478;28;20040;-86
2022/08/21 02:48:40;;;;;;;49.40;30.73;;;;;;;20.91;79.01;94710.25;5019658;28;20510;-86
2022/08/21 02:51:12;;;;;;;53.95;31.05;;;;;;;20.96;78.77;94710.00;5020553;28;20038;-85
2022/08/21 02:53:38;;;;;;;53.45;29.05;;;;;;;20.50;79.53;94633.47;5019659;28;20494;-86
2022/08/21 02:56:11;;;;;;;55.65;29.33;;;;;;;20.91;79.67;94708.34;5020256;28;20534;-86
2022/08/21 02:58:41;;;;;;;50.88;28.50;;;;;;;20.97;78.92;94704.28;5019647;28;20033;-86
2022/08/21 03:01:10;;;;;;;59.58;29.67;;;;;;;20.87;79.02;94701.31;5018843;28;20524;-86
2022/08/21 03:03:39;;;;;;;55.95;28.38;;;;;;;20.71;79.56;94677.06;5018846;28;20103;-86
2022/08/21 03:06:05;;;;;;;60.42;29.88;;;;;;;20.87;79.95;94712.88;5018999;28;20057;-86
2022/08/21 03:08:31;;;;;;;47.88;27.63;;;;;;;20.50;80.03;94669.28;5019300;28;20528;-86
2022/08/21 03:10:57;;;;;;;43.65;26.65;;;;;;;20.70;79.34;94695.16;5019633;28;20036;-86
2022/08/21 03:13:23;;;;;;;48.95;27.63;;;;;;;20.92;79.34;94715.31;5018722;28;20033;-86
2022/08/21 03:15:49;;;;;;;45.70;26.58;;;;;;;20.87;80.27;94718.28;5019345;28;20076;-85
2022/08/21 03:18:15;;;;;;;39.42;25.33;;;;;;;20.85;79.78;94714.34;5020206;28;20033;-86
2022/08/21 03:20:41;;;;;;;49.20;25.48;;;;;;;20.88;80.73;94714.44;5018832;28;20045;-86
2022/08/21 03:23:08;;;;;;;44.60;24.63;;;;;;;20.69;79.92;94693.59;5019380;28;20132;-86
2022/08/21 03:25:35;;;;;;;40.78;22.55;;;;;;;19.52;78.78;94506.84;5018882;28;20507;-86
2022/08/21 03:28:02;;;;;;;40.38;21.42;;;;;;;20.41;78.13;94663.28;5018268;28;20026;-86
2022/08/21 03:30:28;;;;;;;35.53;20.52;;;;;;;20.76;79.73;94723.41;5018568;28;20037;-86
2022/08/21 03:32:53;;;;;;;34.38;20.77;;;;;;;20.11;78.71;94621.72;5018503;28;20471;-86
2022/08/21 03:35:19;;;;;;;36.55;21.95;;;;;;;19.46;78.88;94522.41;5021026;28;20474;-86
2022/08/21 03:37:45;;;;;;;35.63;22.05;;;;;;;20.80;78.18;94720.81;5019348;28;20220;-87
2022/08/21 03:40:14;;;;;;;37.25;21.83;;;;;;;20.82;78.04;94718.53;5036614;28;20033;-86
2022/08/21 03:42:39;;;;;;;36.75;21.08;;;;;;;20.24;77.79;94615.91;5020559;28;20523;-86
2022/08/21 03:45:06;;;;;;;38.63;21.52;;;;;;;19.82;78.08;94564.50;5018896;28;20057;-87
2022/08/21 03:47:32;;;;;;;35.35;20.30;;;;;;;20.21;77.86;94632.75;5019627;28;20538;-86
2022/08/21 03:49:57;;;;;;;29.13;18.25;;;;;;;20.10;77.82;94634.41;5019401;28;20041;-86
2022/08/21 03:52:23;;;;;;;31.48;17.75;;;;;;;19.88;78.28;94606.16;5021125;28;20719;-86
2022/08/21 03:54:49;;;;;;;30.08;17.25;;;;;;;20.35;79.71;94681.63;5018850;28;20563;-86
2022/08/21 03:57:15;;;;;;;35.78;18.05;;;;;;;20.09;80.38;94654.38;5019002;28;20061;-86
2022/08/21 03:59:42;;;;;;;30.10;17.00;;;;;;;20.15;79.75;94682.59;5018846;28;20073;-86
2022/08/21 04:02:08;;;;;;;31.45;16.33;;;;;;;19.49;80.30;94620.47;5018110;28;20856;-86
2022/08/21 04:04:34;;;;;;;23.25;14.95;;;;;;;19.92;80.29;94646.59;5018442;28;20047;-86
2022/08/21 04:06:59;;;;;;;30.30;15.40;;;;;;;20.28;80.27;94694.09;5018396;28;20045;-86
2022/08/21 04:09:25;;;;;;;21.48;13.00;;;;;;;19.79;80.92;94619.00;5018720;28;20038;-86
2022/08/21 04:11:51;;;;;;;23.52;14.00;;;;;;;19.95;80.06;94649.41;5020145;28;20058;-86
2022/08/21 04:14:18;;;;;;;27.42;13.50;;;;;;;20.50;79.78;94725.84;5018144;28;20052;-86
2022/08/21 04:16:44;;;;;;;21.20;11.50;;;;;;;20.27;79.27;94684.44;5020006;28;20037;-86
2022/08/21 04:19:11;;;;;;;17.70;10.85;;;;;;;19.71;79.26;94603.78;5019405;28;20569;-86
2022/08/21 04:21:37;;;;;;;16.48;10.95;;;;;;;20.40;79.68;94704.78;5017629;28;20123;-87
2022/08/21 04:24:04;;;;;;;20.42;10.68;;;;;;;19.61;79.03;94593.53;5018363;28;20515;-87
2022/08/21 04:26:30;;;;;;;21.77;10.85;;;;;;;19.50;78.96;94566.34;5018683;28;20487;-87
2022/08/21 04:28:57;;;;;;;28.25;11.60;;;;;;;20.36;78.35;94695.88;5018889;28;20075;-87
2022/08/21 04:31:23;;;;;;;18.45;10.77;;;;;;;19.94;78.91;94628.22;5018319;28;20076;-87
2022/08/21 04:33:48;;;;;;;17.90;10.73;;;;;;;20.23;78.90;94672.78;5020101;28;20041;-86
2022/08/21 04:36:14;;;;;;;18.80;11.85;;;;;;;20.30;79.82;94697.19;5017804;28;20189;-84
2022/08/21 04:38:39;;;;;;;20.00;10.60;;;;;;;20.27;78.92;94674.44;5018249;28;20045;-86
2022/08/21 04:41:06;;;;;;;19.70;11.60;;;;;;;20.00;80.02;94638.38;5018825;28;20258;-85
2022/08/21 04:43:32;;;;;;;26.10;12.05;;;;;;;20.47;79.36;94709.56;5020045;28;20145;-86
2022/08/21 04:45:57;;;;;;;22.10;11.77;;;;;;;20.16;79.04;94657.22;5018023;28;20152;-85
2022/08/21 04:48:26;;;;;;;18.60;11.70;;;;;;;19.89;79.26;94647.31;5017959;28;20045;-86
2022/08/21 04:50:54;;;;;;;19.52;11.75;;;;;;;20.61;79.27;94726.88;5017350;28;20130;-85
2022/08/21 04:53:47;;;;;;;17.88;11.77;;;;;;;20.59;78.69;94726.47;5019653;28;20465;-85
2022/08/21 04:56:31;;;;;;;20.15;11.82;;;;;;;20.08;80.00;94678.94;5018907;28;20065;-86
2022/08/21 04:59:02;;;;;;;22.15;12.23;;;;;;;20.50;79.29;94725.84;5017838;28;20129;-85
2022/08/21 05:01:30;;;;;;;25.90;13.27;;;;;;;18.91;79.35;94504.44;5017829;28;20041;-85
2022/08/21 05:03:59;;;;;;;28.40;13.30;;;;;;;20.50;79.47;94709.69;5017471;28;20578;-85
2022/08/21 05:06:26;;;;;;;21.05;12.65;;;;;;;20.61;79.09;94734.97;5017611;28;20562;-86
2022/08/21 05:08:55;;;;;;;22.48;13.65;;;;;;;20.48;78.12;94698.47;5017405;28;20523;-86
2022/08/21 05:11:21;;;;;;;30.80;13.60;;;;;;;20.65;78.78;94722.38;5016531;28;20464;-86
2022/08/21 05:13:48;;;;;;;23.27;13.63;;;;;;;18.57;78.71;94409.09;5017758;28;20506;-85
2022/08/21 05:16:15;;;;;;;24.20;14.15;;;;;;;20.60;78.83;94703.75;5018905;28;20041;-86
2022/08/21 05:18:41;;;;;;;23.67;14.18;;;;;;;20.65;78.53;94705.41;5022122;28;20065;-85
2022/08/21 05:21:06;;;;;;;25.42;13.73;;;;;;;20.79;79.04;94717.31;5021455;28;20687;-85
2022/08/21 05:23:32;;;;;;;24.98;14.45;;;;;;;20.86;78.52;94721.31;5021284;28;20065;-86
2022/08/21 05:25:58;;;;;;;24.08;14.07;;;;;;;20.73;78.17;94699.84;5021331;28;20490;-86
2022/08/21 05:28:23;;;;;;;24.33;13.65;;;;;;;20.80;78.06;94702.72;5023117;28;20037;-85
2022/08/21 05:30:49;;;;;;;30.02;14.25;;;;;;;20.89;77.94;94707.16;5021542;28;20068;-85
2022/08/21 05:33:15;;;;;;;27.20;14.80;;;;;;;20.25;78.53;94628.22;5021918;28;20208;-86
2022/08/21 05:35:41;;;;;;;31.17;15.07;;;;;;;19.60;78.82;94517.47;5022322;28;20102;-86
2022/08/21 05:38:07;;;;;;;27.23;15.27;;;;;;;20.63;76.62;94696.91;5023465;28;20491;-85
2022/08/21 05:40:33;;;;;;;28.55;15.55;;;;;;;20.72;77.61;94698.28;5022321;28;20534;-85
2022/08/21 05:42:58;;;;;;;24.52;15.18;;;;;;;21.06;78.20;94707.53;5021741;28;20065;-85
2022/08/21 05:45:32;;;;;;;29.55;15.52;;;;;;;20.39;77.30;94604.38;5021690;28;20124;-85
2022/08/21 05:48:05;;;;;;;29.42;15.02;;;;;;;20.95;76.15;94670.69;5020872;28;20156;-85
2022/08/21 05:50:31;;;;;;;30.45;14.80;;;;;;;21.15;77.12;94696.56;5021309;28;20037;-85
2022/08/21 05:52:57;;;;;;;20.52;14.27;;;;;;;21.13;76.28;94669.94;5022972;28;20502;-84
2022/08/21 05:55:22;;;;;;;25.77;13.75;;;;;;;21.04;75.90;94645.13;5020057;28;20030;-85
2022/08/21 05:57:48;;;;;;;27.42;13.20;;;;;;;21.21;75.10;94670.91;5022894;28;20037;-85
2022/08/21 06:00:14;;;;;;;26.58;14.13;;;;;;;20.91;75.38;94615.91;5020263;28;20041;-85
2022/08/21 06:02:40;;;;;;;23.70;13.77;;;;;;;21.39;74.02;94695.56;5020937;28;20044;-85
2022/08/21 06:05:06;;;;;;;18.92;11.60;;;;;;;20.52;74.61;94585.44;5020993;28;20414;-85
2022/08/21 06:07:32;;;;;;;26.98;12.98;;;;;;;21.15;74.21;94661.50;5022159;28;20115;-85
2022/08/21 06:09:57;;;;;;;19.15;12.43;;;;;;;20.57;73.56;94560.91;5020509;28;20427;-85
2022/08/21 06:12:23;;;;;;;23.70;12.68;;;;;;;21.52;73.87;94694.31;5020997;28;20033;-86
2022/08/21 06:14:50;;;;;;;20.35;12.43;;;;;;;21.45;72.67;94713.03;5021895;28;20450;-85
2022/08/21 06:17:16;;;;;;;22.02;14.20;;;;;;;21.37;73.85;94674.34;5022231;28;20029;-85
2022/08/21 06:19:41;;;;;;;26.50;13.05;;;;;;;21.41;72.74;94679.81;5020613;28;20485;-85
2022/08/21 06:22:07;;;;;;;25.52;13.55;;;;;;;20.86;73.17;94662.81;5021969;28;20567;-85
2022/08/21 06:24:32;;;;;;;19.35;13.43;;;;;;;21.02;74.13;94700.50;5020194;28;20068;-85
2022/08/21 06:27:03;;;;;;;28.27;14.52;;;;;;;21.02;75.08;94705.91;5020491;28;20052;-85
2022/08/21 06:29:28;;;;;;;18.20;12.23;;;;;;;20.50;74.00;94628.09;5019543;28;20037;-84
2022/08/21 06:31:54;;;;;;;24.48;13.52;;;;;;;21.08;74.65;94701.78;5020178;28;20048;-85
2022/08/21 06:34:19;;;;;;;20.95;13.88;;;;;;;20.97;73.88;94665.75;5019808;28;20148;-85
2022/08/21 06:36:45;;;;;;;17.92;12.25;;;;;;;21.32;73.77;94685.41;5020467;28;20029;-86
2022/08/21 06:39:10;;;;;;;25.42;14.00;;;;;;;20.75;72.54;94616.75;5020024;28;20160;-85
2022/08/21 06:41:36;;;;;;;21.27;12.90;;;;;;;20.41;73.38;94598.63;5020292;28;20097;-85
2022/08/21 06:44:01;;;;;;;24.38;12.10;;;;;;;21.19;73.11;94708.25;5021492;28;20045;-85
2022/08/21 06:46:29;;;;;;;22.48;12.43;;;;;;;20.31;73.83;94599.91;5020954;28;20037;-86
2022/08/21 06:48:56;;;;;;;24.90;12.48;;;;;;;21.12;73.73;94708.84;5020377;28;20065;-84
2022/08/21 06:51:22;;;;;;;27.00;13.27;;;;;;;21.27;72.96;94693.78;5019632;28;20041;-84
2022/08/21 06:53:48;;;;;;;21.08;11.43;;;;;;;21.20;72.54;94682.84;5019177;28;20036;-85
2022/08/21 06:56:14;;;;;;;19.27;10.80;;;;;;;21.18;70.87;94650.06;5019190;28;20033;-85
2022/08/21 06:58:39;;;;;;;24.27;13.02;;;;;;;21.31;71.29;94646.09;5021106;28;20037;-86
2022/08/21 07:01:06;;;;;;;20.67;11.38;;;;;;;21.55;70.21;94718.66;5019421;28;20570;-85
2022/08/21 07:03:41;;;;;;;20.17;11.85;;;;;;;21.04;71.12;94674.78;5021355;28;20366;-85
2022/08/21 07:06:08;;;;;;;25.05;11.88;;;;;;;20.25;70.66;94525.91;5019512;28;20451;-85
2022/08/21 07:08:35;;;;;;;24.10;10.95;;;;;;;21.11;69.69;94676.84;5019598;28;20504;-86
2022/08/21 07:11:02;;;;;;;22.20;11.10;;;;;;;21.48;71.07;94704.25;5019041;28;20038;-85
2022/08/21 07:13:29;;;;;;;21.20;10.77;;;;;;;20.96;70.27;94594.88;5019700;28;20041;-85
2022/08/21 07:15:54;;;;;;;17.92;10.93;;;;;;;21.80;69.37;94718.41;5020034;28;20110;-85
2022/08/21 07:18:20;;;;;;;27.80;10.93;;;;;;;21.38;69.63;94670.50;5019474;28;20049;-86
2022/08/21 07:20:46;;;;;;;20.70;10.05;;;;;;;21.74;70.63;94717.13;5019560;28;20484;-85
2022/08/21 07:23:22;;;;;;;21.05;11.95;;;;;;;21.63;68.74;94689.13;5021162;28;20043;-85
2022/08/21 07:25:47;;;;;;;23.77;11.18;;;;;;;21.38;69.08;94683.22;5019736;28;20037;-85
2022/08/21 07:28:13;;;;;;;22.02;11.25;;;;;;;21.28;69.95;94657.59;5019400;28;20672;-84
2022/08/21 07:30:38;;;;;;;23.75;11.40;;;;;;;21.32;69.84;94676.53;5019840;28;20540;-85
2022/08/21 07:33:04;;;;;;;19.00;10.00;;;;;;;20.62;69.56;94539.84;5019462;28;20041;-86
2022/08/21 07:35:31;;;;;;;20.95;9.32;;;;;;;21.31;68.96;94619.13;5020151;28;20048;-85
2022/08/21 07:37:56;;;;;;;26.52;10.48;;;;;;;21.95;68.42;94694.03;5019099;28;20041;-85
2022/08/21 07:40:22;;;;;;;22.60;9.73;;;;;;;20.27;66.86;94415.19;5019097;28;20056;-85
2022/08/21 07:42:51;;;;;;;17.65;8.95;;;;;;;21.84;67.52;94649.84;5019322;28;20057;-85
2022/08/21 07:45:24;;;;;;;18.02;9.85;;;;;;;22.06;66.67;94688.84;5018502;28;20124;-85
2022/08/21 07:47:50;;;;;;;20.33;8.20;;;;;;;21.98;66.43;94643.16;5018850;28;20287;-85
2022/08/21 07:50:16;;;;;;;21.42;10.93;;;;;;;21.78;66.05;94618.09;5018007;28;20278;-85
2022/08/21 07:52:42;;;;;;;20.65;9.32;;;;;;;22.12;65.52;94630.72;5018562;28;20037;-85
2022/08/21 07:55:15;;;;;;;27.38;11.38;;;;;;;22.17;67.68;94687.13;5017635;28;20123;-85
2022/08/21 07:57:41;;;;;;;20.00;11.80;;;;;;;21.33;67.22;94554.84;5019933;28;20143;-86
2022/08/21 08:00:11;;;;;;;19.60;11.88;;;;;;;22.12;67.03;94663.13;5018691;28;20132;-84
2022/08/21 08:02:36;;;;;;;21.95;11.27;;;;;;;22.01;66.11;94647.88;5017739;28;20133;-85
2022/08/21 08:05:08;;;;;;;22.73;12.15;;;;;;;21.78;66.61;94615.41;5018435;28;20488;-85
2022/08/21 08:07:34;;;;;;;23.20;11.65;;;;;;;21.62;66.25;94585.03;5018003;28;20537;-85
2022/08/21 08:10:00;;;;;;;20.92;10.73;;;;;;;22.16;66.32;94655.06;5018464;28;20041;-85
2022/08/21 08:12:29;;;;;;;26.25;11.35;;;;;;;22.27;65.52;94659.53;5018638;28;20430;-85
2022/08/21 08:15:00;;;;;;;20.13;11.27;;;;;;;21.21;65.85;94540.72;5017854;28;20426;-84
2022/08/21 08:17:26;;;;;;;24.88;11.52;;;;;;;22.47;65.75;94691.91;5018176;28;20044;-85
2022/08/21 08:19:52;;;;;;;18.58;11.13;;;;;;;22.46;65.90;94685.72;5018319;28;20597;-85
2022/08/21 08:22:21;;;;;;;22.10;10.75;;;;;;;22.29;65.43;94649.13;5018077;28;20072;-84
2022/08/21 08:24:48;;;;;;;29.73;13.85;;;;;;;21.29;65.72;94489.25;5017513;28;20464;-84
2022/08/21 08:27:14;;;;;;;21.02;13.35;;;;;;;22.38;65.97;94654.31;5017528;28;20114;-85
2022/08/21 08:29:40;;;;;;;23.05;13.10;;;;;;;22.35;64.86;94640.75;5020097;28;20042;-86
2022/08/21 08:32:07;;;;;;;26.17;13.00;;;;;;;22.66;65.30;94684.50;5017727;28;20045;-86
2022/08/21 08:34:33;;;;;;;21.48;12.75;;;;;;;22.77;64.41;94698.22;5019675;28;20033;-86
2022/08/21 08:36:59;;;;;;;19.90;12.18;;;;;;;22.42;65.26;94640.88;5019906;28;20041;-86
2022/08/21 08:39:25;;;;;;;26.20;12.90;;;;;;;22.44;65.55;94674.47;5017952;28;20056;-87
2022/08/21 08:41:56;;;;;;;22.25;12.50;;;;;;;21.59;66.96;94618.16;5018591;28;20080;-86
2022/08/21 08:44:22;;;;;;;23.27;12.43;;;;;;;21.99;66.04;94658.22;5020205;28;20041;-86
2022/08/21 08:46:51;;;;;;;22.73;13.10;;;;;;;22.48;65.64;94690.75;5018062;28;20557;-86
2022/08/21 08:49:22;;;;;;;21.40;12.00;;;;;;;22.43;65.05;94659.41;5018969;28;20052;-86
2022/08/21 08:52:15;;;;;;;29.92;12.95;;;;;;;22.60;64.24;94650.03;5020471;28;20092;-86
2022/08/21 08:54:51;;;;;;;19.80;12.20;;;;;;;22.58;63.32;94599.03;5023042;28;20149;-86
2022/08/21 08:57:22;;;;;;;23.95;11.60;;;;;;;22.12;63.66;94597.53;5021113;28;20057;-86
2022/08/21 08:59:51;;;;;;;19.40;9.93;;;;;;;22.54;63.26;94586.63;5021629;28;20045;-86
2022/08/21 09:02:18;;;;;;;15.60;9.13;;;;;;;23.20;62.20;94675.28;5021755;28;20046;-86
2022/08/21 09:04:48;;;;;;;17.75;8.48;;;;;;;22.90;61.23;94567.09;5039178;28;20033;-86
2022/08/21 09:07:31;;;;;;;20.77;9.30;;;;;;;23.16;60.75;94627.72;5023482;28;20565;-86
2022/08/21 09:10:21;;;;;;;19.08;8.90;;;;;;;23.39;60.96;94612.94;5021624;28;20041;-86
2022/08/21 09:13:06;;;;;;;13.85;8.45;;;;;;;23.35;60.64;94668.13;5021883;28;20068;-85
2022/08/21 09:16:10;;;;;;;16.55;8.32;;;;;;;23.32;61.03;94658.06;5021528;28;20053;-86
2022/08/21 09:18:48;;;;;;;17.85;7.45;;;;;;;23.62;60.80;94649.97;5019852;28;20408;-86
2022/08/21 09:21:27;;;;;;;14.00;8.13;;;;;;;23.22;61.42;94545.88;5021844;28;20480;-86
2022/08/21 09:24:18;;;;;;;21.05;7.78;;;;;;;23.89;60.59;94631.69;5023263;28;20853;-86
2022/08/21 09:27:16;;;;;;;15.40;8.20;;;;;;;24.06;59.60;94609.44;5021047;28;20037;-86
2022/08/21 09:29:47;;;;;;;22.75;7.93;;;;;;;24.23;58.83;94644.88;5023396;28;20504;-86
2022/08/21 09:32:26;;;;;;;17.52;7.55;;;;;;;22.83;58.70;94368.88;5021074;28;20098;-86
2022/08/21 09:35:13;;;;;;;14.23;8.02;;;;;;;24.55;56.85;94642.44;5022786;28;20045;-85
2022/08/21 09:38:02;;;;;;;17.48;8.10;;;;;;;24.54;56.63;94613.78;5020505;28;20091;-84
2022/08/21 09:40:33;;;;;;;17.85;8.13;;;;;;;24.78;56.80;94638.75;5020566;28;20041;-85
2022/08/21 09:43:11;;;;;;;18.75;8.00;;;;;;;24.78;56.83;94639.53;5021526;28;20063;-85
2022/08/21 09:45:38;;;;;;;13.35;7.90;;;;;;;24.79;56.60;94613.97;5020882;28;20435;-84
2022/08/21 09:48:21;;;;;;;13.98;7.60;;;;;;;25.08;56.75;94619.59;5021623;28;20038;-85
2022/08/21 09:50:48;;;;;;;13.85;7.88;;;;;;;24.29;57.09;94515.22;5022512;28;20033;-84
2022/08/21 09:53:21;;;;;;;15.20;7.40;;;;;;;25.33;57.13;94628.63;5020578;28;20037;-84
2022/08/21 09:58:48;;;;;;;9.13;6.25;;;;;;;25.48;55.20;94637.63;5023162;28;20135;-85
2022/08/21 10:01:22;;;;;;;12.35;6.47;;;;;;;24.78;55.04;94541.13;5019890;28;20034;-84
2022/08/21 10:03:48;;;;;;;13.38;6.85;;;;;;;25.31;55.85;94628.25;5019396;28;20051;-85
2022/08/21 10:06:27;;;;;;;14.88;6.68;;;;;;;25.15;57.20;94625.84;5020519;28;20069;-85
2022/08/21 10:09:09;;;;;;;16.67;7.38;;;;;;;25.21;55.58;94621.59;5021629;28;20498;-85
2022/08/21 10:11:35;;;;;;;13.40;7.53;;;;;;;24.83;55.87;94601.19;5021835;28;20044;-84
2022/08/21 10:14:52;;;;;;;15.77;6.57;;;;;;;25.07;56.13;94601.75;5020825;28;20037;-84
2022/08/21 10:17:40;;;;;;;13.30;6.60;;;;;;;24.98;57.96;94596.66;5011809;28;20053;-84
2022/08/21 10:20:13;;;;;;;13.73;6.40;;;;;;;25.06;58.19;94606.41;5019524;28;20084;-85
2022/08/21 10:22:54;;;;;;;20.58;7.57;;;;;;;25.19;57.32;94618.47;5018858;28;20060;-84
2022/08/21 10:25:28;;;;;;;18.95;6.82;;;;;;;25.27;57.59;94608.44;5019429;28;20487;-84
2022/08/21 10:27:53;;;;;;;15.48;6.43;;;;;;;25.30;56.78;94600.31;5021369;28;20488;-85
2022/08/21 10:31:05;;;;;;;15.52;7.28;;;;;;;23.84;56.49;94362.84;5020528;28;20506;-84
2022/08/21 10:33:48;;;;;;;11.10;7.40;;;;;;;25.84;55.45;94587.75;5007603;28;20048;-84
2022/08/21 10:36:31;;;;;;;11.95;6.38;;;;;;;25.93;55.43;94603.69;5020183;28;20029;-85
2022/08/21 10:39:07;;;;;;;13.55;6.78;;;;;;;26.30;54.79;94600.66;5020232;28;20037;-84
2022/08/21 10:41:35;;;;;;;16.08;6.32;;;;;;;26.57;53.82;94598.31;5019231;28;20117;-84
2022/08/21 10:44:30;;;;;;;18.83;7.03;;;;;;;26.77;53.61;94594.81;5019220;28;20113;-85
2022/08/21 10:47:07;;;;;;;15.65;6.65;;;;;;;27.04;50.91;94540.75;5011463;28;20045;-84
2022/08/21 10:49:35;;;;;;;13.05;5.88;;;;;;;27.80;51.07;94591.03;5022120;28;20116;-85
2022/08/21 10:52:29;;;;;;;13.65;5.95;;;;;;;28.29;48.65;94582.59;5020844;28;20151;-85
2022/08/21 10:55:03;;;;;;;14.95;7.22;;;;;;;28.91;47.78;94587.16;5021610;28;20124;-85
2022/08/21 10:57:51;;;;;;;13.60;6.20;;;;;;;29.24;45.73;94576.69;5020823;28;20609;-85
2022/08/21 11:00:42;;;;;;;12.80;5.57;;;;;;;29.88;45.10;94565.78;5008738;28;20512;-85
2022/08/21 11:03:16;;;;;;;13.15;6.00;;;;;;;30.01;45.60;94525.00;5021324;28;20041;-85
2022/08/21 11:05:54;;;;;;;14.30;5.65;;;;;;;30.41;44.40;94513.03;5018929;28;20045;-85
2022/08/21 11:08:30;;;;;;;15.13;5.95;;;;;;;31.03;44.16;94561.63;5018389;28;20125;-85
2022/08/21 11:11:04;;;;;;;17.80;6.63;;;;;;;31.26;41.72;94525.22;5018776;28;20124;-84
2022/08/21 11:13:53;;;;;;;9.18;5.22;;;;;;;31.36;40.32;94551.63;5018445;28;20048;-85
2022/08/21 11:16:41;;;;;;;18.65;5.88;;;;;;;31.36;40.32;94551.63;5018037;28;20180;-85
2022/08/21 11:19:15;;;;;;;15.65;5.20;;;;;;;32.29;39.92;94531.25;5020877;28;20037;-85
2022/08/21 11:21:48;;;;;;;12.52;5.55;;;;;;;32.59;37.99;94543.84;5018812;28;20069;-85
2022/08/21 11:24:38;;;;;;;13.80;4.82;;;;;;;32.87;38.59;94540.41;5018362;28;20409;-85
2022/08/21 11:27:40;;;;;;;12.30;4.15;;;;;;;32.74;37.62;94558.78;5018402;28;20046;-85
2022/08/21 11:30:08;;;;;;;9.93;4.45;;;;;;;32.59;38.21;94521.88;5018363;28;20416;-85
2022/08/21 11:33:10;;;;;;;9.90;4.95;;;;;;;32.74;37.17;94542.31;5017845;28;20049;-85
2022/08/21 11:35:47;;;;;;;10.63;4.95;;;;;;;32.71;37.64;94531.44;5018334;28;20037;-85